createdAt,value
2019-04-10T00:00:41.260Z,12.00
2019-04-10T00:03:44.425Z,12.00
2019-04-10T00:06:47.959Z,12.10
2019-04-10T00:09:51.660Z,12.30
2019-04-10T00:12:56.146Z,12.10
2019-04-10T00:15:59.241Z,12.20
2019-04-10T00:19:02.791Z,12.10
2019-04-10T00:22:06.318Z,11.90
2019-04-10T00:25:10.580Z,11.90
2019-04-10T00:28:14.991Z,11.90
2019-04-10T00:31:18.152Z,12.10
2019-04-10T00:34:21.269Z,11.90
2019-04-10T00:37:28.699Z,11.90
2019-04-10T00:40:29.543Z,12.00
2019-04-10T00:43:32.917Z,11.90
2019-04-10T00:46:36.052Z,12.00
2019-04-10T00:49:39.951Z,11.90
2019-04-10T00:52:44.088Z,11.90
2019-04-10T00:55:48.171Z,11.90
2019-04-10T00:58:51.536Z,11.70
2019-04-10T01:01:54.487Z,11.70
2019-04-10T01:04:58.445Z,11.80
2019-04-10T01:08:02.366Z,11.80
2019-04-10T01:11:06.511Z,11.60
2019-04-10T01:14:09.702Z,11.70
2019-04-10T01:17:13.695Z,11.70
2019-04-10T01:20:17.619Z,11.70
2019-04-10T01:23:21.323Z,11.70
2019-04-10T01:26:25.053Z,11.70
2019-04-10T01:29:29.233Z,11.70
2019-04-10T01:32:32.836Z,11.70
2019-04-10T01:35:35.903Z,11.50
2019-04-10T01:38:39.781Z,11.30
2019-04-10T01:41:43.868Z,11.50
2019-04-10T01:44:47.123Z,11.40
2019-04-10T01:47:51.209Z,11.50
2019-04-10T01:50:54.875Z,11.60
2019-04-10T01:53:58.523Z,11.60
2019-04-10T01:57:02.057Z,11.50
2019-04-10T02:00:08.261Z,11.50
2019-04-10T02:03:11.942Z,11.50
2019-04-10T02:06:14.912Z,11.40
2019-04-10T02:09:19.192Z,11.40
2019-04-10T02:12:23.290Z,11.20
2019-04-10T02:15:28.105Z,11.30
2019-04-10T02:18:31.374Z,11.20
2019-04-10T02:21:35.981Z,11.10
2019-04-10T02:24:39.496Z,11.10
2019-04-10T02:27:43.119Z,11.20
2019-04-10T02:30:46.228Z,11.10
2019-04-10T02:33:49.704Z,11.20
2019-04-10T02:36:53.115Z,10.60
2019-04-10T02:40:02.193Z,10.70
2019-04-10T02:43:03.252Z,10.80
2019-04-10T02:46:06.908Z,10.90
2019-04-10T02:49:14.423Z,10.90
2019-04-10T02:52:18.322Z,10.90
2019-04-10T02:55:23.205Z,10.90
2019-04-10T02:58:26.905Z,10.90
2019-04-10T03:01:31.189Z,10.90
2019-04-10T03:04:35.175Z,10.90
2019-04-10T03:07:42.283Z,10.80
2019-04-10T03:10:50.584Z,10.70
2019-04-10T03:13:51.426Z,10.80
2019-04-10T03:16:55.500Z,10.80
2019-04-10T03:19:58.899Z,10.70
2019-04-10T03:23:02.048Z,10.80
2019-04-10T03:26:05.608Z,10.60
2019-04-10T03:29:08.782Z,10.70
2019-04-10T03:32:50.261Z,10.60
2019-04-10T03:35:51.435Z,10.60
2019-04-10T03:39:00.071Z,10.40
2019-04-10T03:41:59.688Z,10.60
2019-04-10T03:45:03.402Z,10.60
2019-04-10T03:48:06.734Z,10.50
2019-04-10T03:51:10.305Z,10.40
2019-04-10T03:54:13.634Z,10.20
2019-04-10T03:57:16.688Z,10.20
2019-04-10T04:00:20.981Z,10.30
2019-04-10T04:03:24.654Z,10.20
2019-04-10T04:06:28.076Z,10.30
2019-04-10T04:09:31.676Z,10.20
2019-04-10T04:12:35.215Z,10.30
2019-04-10T04:15:38.603Z,10.20
2019-04-10T04:18:41.952Z,10.30
2019-04-10T04:21:44.918Z,10.20
2019-04-10T04:24:48.643Z,10.20
2019-04-10T04:27:51.877Z,10.10
2019-04-10T04:30:54.823Z,10.00
2019-04-10T04:33:57.775Z,10.00
2019-04-10T04:37:00.692Z,9.90
2019-04-10T04:40:05.469Z,10.00
2019-04-10T04:43:08.562Z,10.00
2019-04-10T04:46:12.471Z,10.10
2019-04-10T04:49:15.779Z,10.10
2019-04-10T04:52:20.327Z,10.00
2019-04-10T04:55:23.448Z,9.90
2019-04-10T04:58:26.690Z,9.90
2019-04-10T05:01:29.720Z,9.90
2019-04-10T05:04:33.756Z,9.70
2019-04-10T05:07:37.620Z,9.70
2019-04-10T05:10:41.882Z,9.70
2019-04-10T05:13:45.585Z,9.70
2019-04-10T05:16:49.988Z,9.70
2019-04-10T05:19:54.494Z,9.70
2019-04-10T05:22:58.550Z,9.80
2019-04-10T05:26:03.809Z,9.70
2019-04-10T05:29:07.181Z,9.70
2019-04-10T05:32:11.410Z,9.70
2019-04-10T05:35:15.251Z,9.70
2019-04-10T05:38:18.762Z,9.60
2019-04-10T05:41:23.256Z,9.60
2019-04-10T05:44:27.768Z,9.70
2019-04-10T05:47:30.732Z,9.70
2019-04-10T05:50:33.669Z,9.70
2019-04-10T05:53:36.856Z,9.50
2019-04-10T05:56:40.596Z,9.50
2019-04-10T05:59:43.958Z,9.50
2019-04-10T06:02:48.070Z,9.20
2019-04-10T06:05:51.542Z,9.50
2019-04-10T06:08:54.473Z,9.60
2019-04-10T06:12:00.083Z,9.40
2019-04-10T06:15:04.430Z,9.40
2019-04-10T06:18:09.189Z,9.40
2019-04-10T06:21:12.557Z,9.50
2019-04-10T06:24:16.304Z,9.50
2019-04-10T06:27:20.468Z,9.40
2019-04-10T06:30:24.249Z,9.10
2019-04-10T06:33:28.440Z,9.20
2019-04-10T06:36:31.499Z,9.30
2019-04-10T06:39:35.233Z,9.40
2019-04-10T06:42:46.159Z,9.50
2019-04-10T06:45:44.021Z,9.50
2019-04-10T06:48:48.114Z,9.30
2019-04-10T06:51:52.284Z,9.30
2019-04-10T06:54:55.430Z,9.30
2019-04-10T06:57:59.344Z,9.40
2019-04-10T07:01:04.160Z,9.40
2019-04-10T07:04:08.140Z,9.60
2019-04-10T07:07:15.170Z,9.50
2019-04-10T07:10:26.102Z,9.40
2019-04-10T07:13:21.986Z,9.30
2019-04-10T07:16:28.907Z,9.40
2019-04-10T07:19:30.658Z,9.40
2019-04-10T07:22:34.030Z,9.40
2019-04-10T07:25:37.652Z,9.60
2019-04-10T07:28:45.652Z,9.70
2019-04-10T07:31:48.766Z,9.40
2019-04-10T07:34:57.426Z,9.70
2019-04-10T07:37:58.069Z,9.90
2019-04-10T07:41:01.529Z,10.10
2019-04-10T07:44:05.892Z,10.10
2019-04-10T07:47:11.107Z,10.00
2019-04-10T07:50:14.701Z,10.30
2019-04-10T07:53:17.648Z,10.50
2019-04-10T07:56:20.980Z,10.30
2019-04-10T07:59:25.568Z,10.50
2019-04-10T08:03:14.640Z,10.70
2019-04-10T08:06:17.953Z,10.70
2019-04-10T08:09:21.238Z,10.70
2019-04-10T08:12:37.620Z,10.80
2019-04-10T08:15:33.564Z,11.10
2019-04-10T08:18:37.240Z,11.40
2019-04-10T08:21:40.396Z,13.90
2019-04-10T08:24:49.106Z,15.90
2019-04-10T08:27:52.305Z,16.60
2019-04-10T08:30:57.445Z,17.00
2019-04-10T08:34:01.089Z,17.30
2019-04-10T08:37:04.613Z,17.00
2019-04-10T08:40:09.626Z,17.10
2019-04-10T08:43:13.778Z,17.10
2019-04-10T08:46:17.698Z,17.00
2019-04-10T08:49:21.424Z,17.10
2019-04-10T08:52:24.757Z,16.90
2019-04-10T08:55:28.280Z,16.90
2019-04-10T08:58:32.755Z,17.10
2019-04-10T09:01:36.316Z,17.20
2019-04-10T09:04:39.295Z,17.30
2019-04-10T09:07:42.291Z,17.30
2019-04-10T09:10:47.408Z,17.30
2019-04-10T09:13:50.763Z,17.30
2019-04-10T09:16:55.258Z,17.40
2019-04-10T09:19:58.400Z,17.60
2019-04-10T09:23:33.031Z,17.60
2019-04-10T09:26:06.576Z,17.50
2019-04-10T09:29:09.802Z,17.50
2019-04-10T09:32:12.799Z,17.40
2019-04-10T09:35:16.368Z,17.30
2019-04-10T09:38:20.972Z,17.00
2019-04-10T09:41:23.988Z,17.20
2019-04-10T09:44:27.831Z,17.40
2019-04-10T09:47:31.011Z,16.90
2019-04-10T09:50:33.947Z,16.90
2019-04-10T09:53:38.987Z,17.70
2019-04-10T09:56:42.405Z,17.80
2019-04-10T09:59:46.987Z,17.80
2019-04-10T10:02:50.738Z,17.60
2019-04-10T10:05:55.023Z,17.70
2019-04-10T10:08:58.468Z,17.90
2019-04-10T10:12:01.511Z,17.80
2019-04-10T10:15:07.235Z,17.30
2019-04-10T10:18:10.937Z,16.80
2019-04-10T10:21:14.615Z,15.90
2019-04-10T10:24:18.320Z,15.70
2019-04-10T10:27:22.152Z,15.10
2019-04-10T10:30:27.273Z,15.10
2019-04-10T10:33:31.989Z,14.70
2019-04-10T10:36:41.133Z,14.80
2019-04-10T10:39:41.145Z,14.80
2019-04-10T10:42:45.552Z,14.60
2019-04-10T10:45:49.207Z,14.70
2019-04-10T10:48:52.232Z,14.70
2019-04-10T10:51:57.210Z,15.30
2019-04-10T10:55:01.058Z,15.60
2019-04-10T10:58:05.798Z,15.50
2019-04-10T11:01:08.968Z,15.10
2019-04-10T11:04:12.953Z,15.00
2019-04-10T11:07:16.217Z,15.30
2019-04-10T11:10:22.709Z,15.20
2019-04-10T11:13:24.293Z,15.40
2019-04-10T11:16:27.673Z,15.40
2019-04-10T11:19:31.232Z,15.40
2019-04-10T11:22:35.521Z,15.50
2019-04-10T11:25:40.394Z,15.60
2019-04-10T11:28:45.618Z,15.50
2019-04-10T11:31:49.227Z,15.70
2019-04-10T11:34:52.971Z,15.70
2019-04-10T11:37:59.247Z,16.20
2019-04-10T11:41:03.016Z,17.20
2019-04-10T11:44:08.147Z,18.00
2019-04-10T11:47:12.762Z,17.30
2019-04-10T11:50:18.377Z,16.50
2019-04-10T11:53:24.013Z,16.50
2019-04-10T11:56:30.063Z,16.10
2019-04-10T11:59:34.583Z,15.90
2019-04-10T12:02:39.425Z,16.10
2019-04-10T12:05:42.659Z,16.10
2019-04-10T12:09:08.310Z,16.40
2019-04-10T12:11:51.489Z,16.50
2019-04-10T12:14:54.454Z,16.40
2019-04-10T12:17:58.237Z,16.50
2019-04-10T12:21:01.924Z,17.10
2019-04-10T12:24:05.420Z,16.80
2019-04-10T12:27:09.161Z,16.60
2019-04-10T12:30:13.325Z,16.60
2019-04-10T12:33:17.173Z,16.60
2019-04-10T12:36:20.536Z,16.60
2019-04-10T12:39:24.538Z,16.50
2019-04-10T12:42:28.146Z,16.80
2019-04-10T12:45:32.635Z,16.80
2019-04-10T12:48:36.901Z,16.70
2019-04-10T12:51:40.271Z,16.90
2019-04-10T12:54:44.973Z,16.90
2019-04-10T12:57:48.664Z,17.00
2019-04-10T13:00:52.207Z,17.20
2019-04-10T13:03:55.774Z,17.00
2019-04-10T13:06:59.069Z,17.00
2019-04-10T13:10:02.544Z,17.30
2019-04-10T13:13:06.148Z,17.50
2019-04-10T13:16:09.918Z,17.60
2019-04-10T13:19:13.190Z,17.60
2019-04-10T13:22:16.645Z,17.70
2019-04-10T13:25:19.613Z,17.70
2019-04-10T13:28:23.743Z,17.70
2019-04-10T13:31:27.652Z,17.70
2019-04-10T13:34:31.269Z,17.60
2019-04-10T13:37:35.610Z,17.70
2019-04-10T13:40:39.578Z,17.50
2019-04-10T13:43:42.600Z,17.80
2019-04-10T13:46:46.424Z,17.90
2019-04-10T13:49:51.115Z,17.90
2019-04-10T13:52:54.891Z,17.80
2019-04-10T13:55:58.999Z,17.80
2019-04-10T13:59:02.141Z,17.80
2019-04-10T14:02:06.964Z,18.60
2019-04-10T14:05:13.690Z,19.10
2019-04-10T14:08:17.264Z,19.80
2019-04-10T14:11:21.470Z,20.00
2019-04-10T14:14:24.595Z,19.20
2019-04-10T14:17:28.407Z,19.30
2019-04-10T14:20:31.685Z,19.30
2019-04-10T14:23:35.331Z,19.50
2019-04-10T14:26:55.651Z,19.50
2019-04-10T14:29:59.695Z,19.10
2019-04-10T14:33:05.066Z,19.30
2019-04-10T14:36:08.250Z,19.20
2019-04-10T14:39:18.406Z,19.20
2019-04-10T14:42:20.327Z,19.20
2019-04-10T14:45:23.619Z,19.10
2019-04-10T14:48:27.884Z,19.40
2019-04-10T14:51:32.481Z,19.20
2019-04-10T14:54:35.823Z,18.90
2019-04-10T14:57:39.174Z,18.90
2019-04-10T15:00:49.520Z,19.10
2019-04-10T15:03:53.001Z,18.30
2019-04-10T15:06:56.302Z,17.90
2019-04-10T15:10:00.909Z,17.50
2019-04-10T15:13:10.255Z,17.50
2019-04-10T15:16:09.496Z,17.30
2019-04-10T15:19:12.900Z,16.80
2019-04-10T15:22:15.968Z,16.70
2019-04-10T15:25:19.489Z,16.80
2019-04-10T15:28:23.236Z,16.90
2019-04-10T15:31:27.560Z,16.80
2019-04-10T15:34:31.389Z,16.90
2019-04-10T15:37:35.192Z,16.90
2019-04-10T15:40:38.614Z,17.00
2019-04-10T15:43:42.016Z,17.20
2019-04-10T15:46:45.647Z,17.00
2019-04-10T15:49:49.392Z,17.00
2019-04-10T15:52:53.593Z,16.90
2019-04-10T15:55:57.783Z,16.80
2019-04-10T15:59:01.192Z,16.70
2019-04-10T16:02:05.721Z,16.70
2019-04-10T16:05:10.081Z,16.60
2019-04-10T16:08:14.258Z,16.50
2019-04-10T16:11:29.942Z,16.40
2019-04-10T16:14:33.407Z,16.10
2019-04-10T16:17:52.587Z,15.90
2019-04-10T16:20:56.182Z,15.90
2019-04-10T16:24:04.605Z,15.90
2019-04-10T16:27:07.669Z,15.80
2019-04-10T16:30:15.494Z,15.60
2019-04-10T16:33:18.874Z,15.70
2019-04-10T16:36:23.404Z,15.60
2019-04-10T16:39:27.834Z,15.40
2019-04-10T16:42:31.042Z,15.30
2019-04-10T16:45:34.892Z,15.10
2019-04-10T16:48:38.035Z,15.20
2019-04-10T16:51:41.009Z,15.30
2019-04-10T16:54:45.158Z,14.90
2019-04-10T16:57:49.151Z,14.80
2019-04-10T17:00:53.780Z,14.50
2019-04-10T17:03:57.256Z,14.50
2019-04-10T17:07:00.848Z,14.30
2019-04-10T17:10:14.065Z,14.30
2019-04-10T17:13:12.109Z,14.30
2019-04-10T17:16:15.641Z,14.20
2019-04-10T17:19:19.431Z,14.20
2019-04-10T17:22:30.881Z,14.20
2019-04-10T17:25:28.488Z,14.00
2019-04-10T17:28:32.311Z,13.90
2019-04-10T17:31:35.477Z,13.90
2019-04-10T17:34:38.944Z,13.90
2019-04-10T17:37:42.275Z,13.90
2019-04-10T17:40:50.929Z,13.90
2019-04-10T17:43:51.554Z,13.90
2019-04-10T17:46:55.761Z,14.00
2019-04-10T17:50:00.168Z,13.90
2019-04-10T17:53:05.101Z,13.90
2019-04-10T17:56:08.665Z,13.90
2019-04-10T17:59:11.605Z,13.70
2019-04-10T18:02:15.719Z,13.60
2019-04-10T18:05:20.116Z,13.60
2019-04-10T18:08:26.424Z,13.50
2019-04-10T18:11:29.798Z,13.40
2019-04-10T18:14:36.148Z,13.40
2019-04-10T18:17:38.735Z,13.40
2019-04-10T18:20:42.239Z,13.50
2019-04-10T18:23:45.445Z,13.60
2019-04-10T18:26:51.917Z,13.40
2019-04-10T18:29:53.584Z,13.30
2019-04-10T18:32:58.084Z,13.30
2019-04-10T18:36:01.528Z,13.20
2019-04-10T18:39:11.374Z,13.30
2019-04-10T18:42:13.890Z,13.40
2019-04-10T18:45:17.585Z,13.20
2019-04-10T18:48:21.383Z,13.30
2019-04-10T18:51:25.690Z,13.10
2019-04-10T18:54:29.790Z,13.20
2019-04-10T18:57:35.009Z,13.20
2019-04-10T19:00:56.850Z,13.20
2019-04-10T19:04:18.279Z,13.20
2019-04-10T19:07:22.894Z,13.10
2019-04-10T19:10:26.435Z,13.00
2019-04-10T19:13:29.408Z,12.90
2019-04-10T19:16:33.831Z,12.90
2019-04-10T19:19:40.095Z,12.80
2019-04-10T19:22:42.451Z,12.80
2019-04-10T19:25:47.079Z,12.80
2019-04-10T19:28:50.722Z,12.70
2019-04-10T19:31:56.447Z,12.60
2019-04-10T19:34:59.385Z,12.70
2019-04-10T19:38:03.164Z,12.70
2019-04-10T19:41:06.283Z,12.70
2019-04-10T19:44:10.737Z,12.70
2019-04-10T19:47:14.580Z,12.60
2019-04-10T19:50:19.402Z,12.40
2019-04-10T19:53:22.516Z,12.30
2019-04-10T19:56:26.653Z,12.20
2019-04-10T19:59:31.623Z,12.20
2019-04-10T20:02:35.166Z,12.10
2019-04-10T20:05:39.337Z,12.10
2019-04-10T20:08:42.587Z,12.00
2019-04-10T20:11:52.261Z,12.00
2019-04-10T20:14:50.725Z,12.00
2019-04-10T20:17:54.636Z,11.60
2019-04-10T20:20:58.086Z,11.50
2019-04-10T20:24:01.133Z,11.80
2019-04-10T20:27:04.495Z,11.90
2019-04-10T20:30:09.942Z,11.70
2019-04-10T20:33:14.488Z,11.80
2019-04-10T20:36:17.514Z,11.70
2019-04-10T20:39:21.101Z,11.70
2019-04-10T20:42:25.292Z,11.70
2019-04-10T20:45:29.489Z,11.70
2019-04-10T20:48:32.822Z,11.70
2019-04-10T20:51:35.969Z,11.60
2019-04-10T20:54:39.527Z,11.60
2019-04-10T20:57:46.413Z,11.40
2019-04-10T21:00:51.435Z,11.40
2019-04-10T21:03:57.105Z,11.40
2019-04-10T21:07:00.729Z,11.30
2019-04-10T21:10:04.290Z,11.20
2019-04-10T21:13:21.936Z,11.10
2019-04-10T21:16:27.349Z,11.10
2019-04-10T21:19:31.279Z,11.10
2019-04-10T21:22:34.331Z,11.20
2019-04-10T21:25:37.964Z,11.20
2019-04-10T21:28:41.580Z,11.20
2019-04-10T21:31:54.935Z,11.00
2019-04-10T21:34:59.689Z,10.90
2019-04-10T21:38:02.778Z,10.80
2019-04-10T21:41:08.093Z,10.80
2019-04-10T21:44:12.954Z,10.80
2019-04-10T21:47:16.037Z,10.50
2019-04-10T21:50:20.024Z,10.60
2019-04-10T21:53:24.086Z,10.50
2019-04-10T21:56:28.763Z,10.20
2019-04-10T21:59:32.149Z,10.30
2019-04-10T22:02:35.904Z,10.40
2019-04-10T22:05:41.012Z,10.40
2019-04-10T22:08:50.373Z,10.10
2019-04-10T22:11:55.314Z,10.30
2019-04-10T22:14:58.385Z,10.30
2019-04-10T22:18:02.982Z,10.00
2019-04-10T22:21:08.226Z,10.00
2019-04-10T22:24:11.609Z,9.90
2019-04-10T22:27:14.842Z,9.90
2019-04-10T22:30:18.969Z,9.60
2019-04-10T22:33:22.295Z,9.90
2019-04-10T22:36:26.013Z,10.00
2019-04-10T22:39:29.974Z,9.90
2019-04-10T22:42:40.115Z,9.50
2019-04-10T22:45:40.162Z,9.60
2019-04-10T22:48:43.669Z,9.70
2019-04-10T22:51:46.666Z,9.50
2019-04-10T22:54:50.898Z,9.40
2019-04-10T22:57:54.763Z,9.20
2019-04-10T23:00:58.031Z,9.30
2019-04-10T23:04:01.779Z,9.30
2019-04-10T23:07:06.027Z,9.40
2019-04-10T23:10:13.219Z,9.00
2019-04-10T23:13:18.635Z,9.00
2019-04-10T23:16:22.266Z,8.90
2019-04-10T23:19:25.834Z,8.90
2019-04-10T23:22:29.389Z,8.60
2019-04-10T23:25:32.864Z,8.50
2019-04-10T23:28:36.386Z,8.90
2019-04-10T23:31:41.618Z,8.90
2019-04-10T23:34:45.339Z,8.80
2019-04-10T23:37:48.615Z,8.60
2019-04-10T23:40:51.627Z,8.80
2019-04-10T23:43:55.705Z,8.80
2019-04-10T23:46:59.937Z,8.70
2019-04-10T23:50:06.263Z,8.80
2019-04-10T23:53:09.994Z,8.60
2019-04-10T23:56:13.624Z,8.60
2019-04-10T23:59:19.086Z,8.50
